createdAt,value
2018-05-06T00:00:09.085Z,1020.42
2018-05-06T00:01:09.076Z,1020.43
2018-05-06T00:02:09.060Z,1020.44
2018-05-06T00:03:09.045Z,1020.49
2018-05-06T00:04:09.045Z,1020.47
2018-05-06T00:05:09.103Z,1020.43
2018-05-06T00:06:09.002Z,1020.47
2018-05-06T00:07:08.989Z,1020.47
2018-05-06T00:08:08.978Z,1020.48
2018-05-06T00:09:08.983Z,1020.45
2018-05-06T00:10:08.949Z,1020.43
2018-05-06T00:11:08.942Z,1020.45
2018-05-06T00:12:08.922Z,1020.44
2018-05-06T00:13:08.907Z,1020.42
2018-05-06T00:14:08.893Z,1020.38
2018-05-06T00:15:08.959Z,1020.43
2018-05-06T00:16:08.864Z,1020.35
2018-05-06T00:17:08.853Z,1020.36
2018-05-06T00:18:08.838Z,1020.32
2018-05-06T00:19:08.832Z,1020.35
2018-05-06T00:20:08.828Z,1020.34
2018-05-06T00:21:08.797Z,1020.30
2018-05-06T00:22:08.783Z,1020.30
2018-05-06T00:23:08.775Z,1020.35
2018-05-06T00:24:08.756Z,1020.32
2018-05-06T00:25:08.757Z,1020.25
2018-05-06T00:26:08.729Z,1020.29
2018-05-06T00:27:08.728Z,1020.32
2018-05-06T00:28:08.699Z,1020.29
2018-05-06T00:29:08.684Z,1020.31
2018-05-06T00:30:08.686Z,1020.27
2018-05-06T00:31:08.662Z,1020.30
2018-05-06T00:32:08.660Z,1020.31
2018-05-06T00:33:08.632Z,1020.33
2018-05-06T00:34:08.621Z,1020.29
2018-05-06T00:35:08.619Z,1020.35
2018-05-06T00:36:08.591Z,1020.32
2018-05-06T00:37:08.575Z,1020.31
2018-05-06T00:38:08.562Z,1020.33
2018-05-06T00:39:08.547Z,1020.34
2018-05-06T00:40:08.535Z,1020.35
2018-05-06T00:41:08.534Z,1020.35
2018-05-06T00:42:08.505Z,1020.35
2018-05-06T00:43:08.493Z,1020.34
2018-05-06T00:44:08.492Z,1020.35
2018-05-06T00:45:08.461Z,1020.33
2018-05-06T00:46:08.448Z,1020.36
2018-05-06T00:47:08.435Z,1020.33
2018-05-06T00:48:08.438Z,1020.30
2018-05-06T00:49:08.411Z,1020.29
2018-05-06T00:50:08.394Z,1020.32
2018-05-06T00:51:08.392Z,1020.30
2018-05-06T00:52:08.369Z,1020.30
2018-05-06T00:53:08.371Z,1020.30
2018-05-06T00:54:08.338Z,1020.28
2018-05-06T00:55:08.327Z,1020.31
2018-05-06T00:56:08.322Z,1020.26
2018-05-06T00:57:08.298Z,1020.27
2018-05-06T00:58:08.298Z,1020.25
2018-05-06T00:59:08.267Z,1020.22
2018-05-06T01:00:08.256Z,1020.25
2018-05-06T01:01:08.240Z,1020.22
2018-05-06T01:02:08.223Z,1020.23
2018-05-06T01:03:08.212Z,1020.23
2018-05-06T01:04:08.211Z,1020.24
2018-05-06T01:05:08.182Z,1020.24
2018-05-06T01:06:08.168Z,1020.22
2018-05-06T01:07:08.154Z,1020.22
2018-05-06T01:08:08.143Z,1020.19
2018-05-06T01:09:08.148Z,1020.22
2018-05-06T01:10:08.112Z,1020.18
2018-05-06T01:11:08.099Z,1020.22
2018-05-06T01:12:08.089Z,1020.19
2018-05-06T01:13:08.075Z,1020.22
2018-05-06T01:14:08.057Z,1020.26
2018-05-06T01:15:08.058Z,1020.25
2018-05-06T01:16:08.023Z,1020.29
2018-05-06T01:17:08.012Z,1020.29
2018-05-06T01:18:07.998Z,1020.30
2018-05-06T01:19:07.987Z,1020.32
2018-05-06T01:20:07.967Z,1020.31
2018-05-06T01:21:07.972Z,1020.36
2018-05-06T01:22:07.938Z,1020.35
2018-05-06T01:23:07.931Z,1020.38
2018-05-06T01:24:07.909Z,1020.37
2018-05-06T01:25:07.900Z,1020.38
2018-05-06T01:26:07.882Z,1020.40
2018-05-06T01:27:07.884Z,1020.39
2018-05-06T01:28:07.860Z,1020.36
2018-05-06T01:29:07.843Z,1020.38
2018-05-06T01:30:07.823Z,1020.39
2018-05-06T01:31:07.816Z,1020.40
2018-05-06T01:32:07.801Z,1020.37
2018-05-06T01:33:07.798Z,1020.36
2018-05-06T01:34:07.769Z,1020.36
2018-05-06T01:35:07.756Z,1020.34
2018-05-06T01:36:07.752Z,1020.36
2018-05-06T01:37:07.737Z,1020.31
2018-05-06T01:38:07.710Z,1020.32
2018-05-06T01:39:07.697Z,1020.32
2018-05-06T01:40:07.684Z,1020.28
2018-05-06T01:41:07.666Z,1020.25
2018-05-06T01:42:07.663Z,1020.25
2018-05-06T01:43:07.638Z,1020.26
2018-05-06T01:44:07.625Z,1020.24
2018-05-06T01:45:07.610Z,1020.25
2018-05-06T01:46:07.600Z,1020.17
2018-05-06T01:47:07.597Z,1020.21
2018-05-06T01:48:07.586Z,1020.26
2018-05-06T01:49:07.555Z,1020.23
2018-05-06T01:50:07.539Z,1020.21
2018-05-06T01:51:07.525Z,1020.23
2018-05-06T01:52:07.508Z,1020.28
2018-05-06T01:53:07.495Z,1020.26
2018-05-06T01:54:07.494Z,1020.26
2018-05-06T01:55:07.467Z,1020.31
2018-05-06T01:56:07.452Z,1020.29
2018-05-06T01:57:07.442Z,1020.28
2018-05-06T01:58:07.422Z,1020.26
2018-05-06T01:59:07.406Z,1020.28
2018-05-06T02:00:07.407Z,1020.28
2018-05-06T02:01:07.376Z,1020.34
2018-05-06T02:02:07.361Z,1020.32
2018-05-06T02:03:07.364Z,1020.34
2018-05-06T02:04:07.344Z,1020.33
2018-05-06T02:05:07.320Z,1020.33
2018-05-06T02:06:07.303Z,1020.37
2018-05-06T02:07:07.290Z,1020.40
2018-05-06T02:08:07.284Z,1020.37
2018-05-06T02:09:07.277Z,1020.38
2018-05-06T02:10:07.246Z,1020.39
2018-05-06T02:11:07.232Z,1020.40
2018-05-06T02:12:07.219Z,1020.36
2018-05-06T02:13:07.204Z,1020.35
2018-05-06T02:14:07.189Z,1020.38
2018-05-06T02:15:07.190Z,1020.37
2018-05-06T02:16:07.160Z,1020.36
2018-05-06T02:17:07.144Z,1020.36
2018-05-06T02:18:07.130Z,1020.34
2018-05-06T02:19:07.118Z,1020.34
2018-05-06T02:20:07.115Z,1020.32
2018-05-06T02:21:07.088Z,1020.33
2018-05-06T02:22:07.085Z,1020.34
2018-05-06T02:23:07.059Z,1020.34
2018-05-06T02:24:07.044Z,1020.31
2018-05-06T02:25:07.045Z,1020.32
2018-05-06T02:26:07.013Z,1020.30
2018-05-06T02:27:06.999Z,1020.33
2018-05-06T02:28:06.984Z,1020.31
2018-05-06T02:29:06.975Z,1020.29
2018-05-06T02:30:06.964Z,1020.29
2018-05-06T02:31:06.941Z,1020.29
2018-05-06T02:32:06.926Z,1020.28
2018-05-06T02:33:06.910Z,1020.26
2018-05-06T02:34:06.894Z,1020.27
2018-05-06T02:35:06.907Z,1020.24
2018-05-06T02:36:06.871Z,1020.27
2018-05-06T02:37:06.860Z,1020.26
2018-05-06T02:38:06.838Z,1020.23
2018-05-06T02:39:06.823Z,1020.24
2018-05-06T02:40:06.808Z,1020.29
2018-05-06T02:41:06.802Z,1020.26
2018-05-06T02:42:06.777Z,1020.28
2018-05-06T02:43:06.761Z,1020.26
2018-05-06T02:44:06.749Z,1020.26
2018-05-06T02:45:06.733Z,1020.23
2018-05-06T02:46:06.731Z,1020.25
2018-05-06T02:47:06.702Z,1020.24
2018-05-06T02:48:06.689Z,1020.21
2018-05-06T02:49:06.674Z,1020.25
2018-05-06T02:50:06.657Z,1020.24
2018-05-06T02:51:06.657Z,1020.23
2018-05-06T02:52:06.635Z,1020.22
2018-05-06T02:53:06.634Z,1020.22
2018-05-06T02:54:06.599Z,1020.22
2018-05-06T02:55:06.586Z,1020.20
2018-05-06T02:56:06.585Z,1020.19
2018-05-06T02:57:06.552Z,1020.19
2018-05-06T02:58:06.540Z,1020.18
2018-05-06T02:59:06.583Z,1020.16
2018-05-06T03:00:06.509Z,1020.16
2018-05-06T03:01:06.492Z,1020.15
2018-05-06T03:02:06.495Z,1020.14
2018-05-06T03:03:06.466Z,1020.14
2018-05-06T03:04:06.450Z,1020.17
2018-05-06T03:05:06.435Z,1020.17
2018-05-06T03:06:06.420Z,1020.22
2018-05-06T03:07:06.427Z,1020.21
2018-05-06T03:08:06.389Z,1020.21
2018-05-06T03:09:06.376Z,1020.23
2018-05-06T03:10:06.361Z,1020.21
2018-05-06T03:11:06.344Z,1020.24
2018-05-06T03:12:06.333Z,1020.23
2018-05-06T03:13:06.331Z,1020.26
2018-05-06T03:14:06.302Z,1020.26
2018-05-06T03:15:06.283Z,1020.28
2018-05-06T03:16:06.269Z,1020.31
2018-05-06T03:17:06.253Z,1020.29
2018-05-06T03:18:06.255Z,1020.26
2018-05-06T03:19:06.225Z,1020.28
2018-05-06T03:20:06.212Z,1020.27
2018-05-06T03:21:06.196Z,1020.29
2018-05-06T03:22:06.175Z,1020.29
2018-05-06T03:23:06.188Z,1020.26
2018-05-06T03:24:06.148Z,1020.24
2018-05-06T03:25:06.133Z,1020.25
2018-05-06T03:26:06.117Z,1020.26
2018-05-06T03:27:06.105Z,1020.24
2018-05-06T03:28:06.089Z,1020.23
2018-05-06T03:29:06.092Z,1020.26
2018-05-06T03:30:06.055Z,1020.25
2018-05-06T03:31:06.044Z,1020.26
2018-05-06T03:32:06.029Z,1020.29
2018-05-06T03:33:06.023Z,1020.25
2018-05-06T03:34:05.997Z,1020.26
2018-05-06T03:35:05.986Z,1020.24
2018-05-06T03:36:05.985Z,1020.21
2018-05-06T03:37:05.953Z,1020.23
2018-05-06T03:38:05.935Z,1020.22
2018-05-06T03:39:05.934Z,1020.21
2018-05-06T03:40:05.904Z,1020.22
2018-05-06T03:41:05.902Z,1020.24
2018-05-06T03:42:05.875Z,1020.21
2018-05-06T03:43:05.858Z,1020.23
2018-05-06T03:44:05.845Z,1020.23
2018-05-06T03:45:05.839Z,1020.21
2018-05-06T03:46:05.812Z,1020.23
2018-05-06T03:47:05.796Z,1020.23
2018-05-06T03:48:05.783Z,1020.22
2018-05-06T03:49:05.768Z,1020.19
2018-05-06T03:50:05.765Z,1020.21
2018-05-06T03:51:05.750Z,1020.22
2018-05-06T03:52:05.741Z,1020.21
2018-05-06T03:53:05.707Z,1020.21
2018-05-06T03:54:05.690Z,1020.21
2018-05-06T03:55:05.675Z,1020.22
2018-05-06T03:56:05.659Z,1020.24
2018-05-06T03:57:05.645Z,1020.23
2018-05-06T03:58:05.648Z,1020.25
2018-05-06T03:59:05.612Z,1020.25
2018-05-06T04:00:05.599Z,1020.24
2018-05-06T04:01:05.594Z,1020.24
2018-05-06T04:02:05.597Z,1020.25
2018-05-06T04:03:05.571Z,1020.30
2018-05-06T04:04:05.537Z,1020.28
2018-05-06T04:05:05.523Z,1020.28
2018-05-06T04:06:05.502Z,1020.26
2018-05-06T04:07:05.490Z,1020.28
2018-05-06T04:08:05.493Z,1020.30
2018-05-06T04:09:05.463Z,1020.32
2018-05-06T04:10:05.446Z,1020.32
2018-05-06T04:11:05.428Z,1020.27
2018-05-06T04:12:05.429Z,1020.28
2018-05-06T04:13:05.415Z,1020.29
2018-05-06T04:14:05.378Z,1020.28
2018-05-06T04:15:05.368Z,1020.30
2018-05-06T04:16:05.349Z,1020.31
2018-05-06T04:17:05.351Z,1020.33
2018-05-06T04:18:05.331Z,1020.33
2018-05-06T04:19:05.323Z,1020.35
2018-05-06T04:20:05.290Z,1020.33
2018-05-06T04:21:05.276Z,1020.33
2018-05-06T04:22:05.263Z,1020.32
2018-05-06T04:23:05.244Z,1020.33
2018-05-06T04:24:05.241Z,1020.30
2018-05-06T04:25:05.212Z,1020.31
2018-05-06T04:26:05.199Z,1020.28
2018-05-06T04:27:05.185Z,1020.28
2018-05-06T04:28:05.168Z,1020.27
2018-05-06T04:29:05.168Z,1020.27
2018-05-06T04:30:05.137Z,1020.25
2018-05-06T04:31:05.137Z,1020.32
2018-05-06T04:32:05.108Z,1020.32
2018-05-06T04:33:05.095Z,1020.31
2018-05-06T04:34:05.079Z,1020.31
2018-05-06T04:35:05.067Z,1020.32
2018-05-06T04:36:05.065Z,1020.32
2018-05-06T04:37:05.038Z,1020.32
2018-05-06T04:38:05.017Z,1020.30
2018-05-06T04:39:05.007Z,1020.30
2018-05-06T04:40:04.990Z,1020.34
2018-05-06T04:41:04.992Z,1020.33
2018-05-06T04:42:04.960Z,1020.29
2018-05-06T04:43:04.946Z,1020.27
2018-05-06T04:44:04.932Z,1020.28
2018-05-06T04:45:04.922Z,1020.27
2018-05-06T04:46:04.903Z,1020.29
2018-05-06T04:47:04.903Z,1020.31
2018-05-06T04:48:04.885Z,1020.30
2018-05-06T04:49:04.859Z,1020.32
2018-05-06T04:50:04.858Z,1020.32
2018-05-06T04:51:04.833Z,1020.37
2018-05-06T04:52:04.817Z,1020.39
2018-05-06T04:53:04.801Z,1020.36
2018-05-06T04:54:04.784Z,1020.36
2018-05-06T04:55:04.771Z,1020.37
2018-05-06T04:56:04.772Z,1020.43
2018-05-06T04:57:04.742Z,1020.43
2018-05-06T04:58:04.743Z,1020.41
2018-05-06T04:59:04.713Z,1020.41
2018-05-06T05:00:04.698Z,1020.40
2018-05-06T05:01:04.685Z,1020.41
2018-05-06T05:02:04.668Z,1020.43
2018-05-06T05:03:04.670Z,1020.41
2018-05-06T05:04:04.645Z,1020.45
2018-05-06T05:05:04.628Z,1020.44
2018-05-06T05:06:04.611Z,1020.45
2018-05-06T05:07:04.596Z,1020.41
2018-05-06T05:08:04.596Z,1020.43
2018-05-06T05:09:04.568Z,1020.43
2018-05-06T05:10:04.566Z,1020.45
2018-05-06T05:11:04.541Z,1020.43
2018-05-06T05:12:04.523Z,1020.45
2018-05-06T05:13:04.510Z,1020.44
2018-05-06T05:14:04.494Z,1020.46
2018-05-06T05:15:04.496Z,1020.44
2018-05-06T05:16:04.485Z,1020.43
2018-05-06T05:17:04.450Z,1020.43
2018-05-06T05:18:04.438Z,1020.48
2018-05-06T05:19:04.420Z,1020.51
2018-05-06T05:20:04.405Z,1020.50
2018-05-06T05:21:04.409Z,1020.53
2018-05-06T05:22:04.378Z,1020.57
2018-05-06T05:23:04.360Z,1020.55
2018-05-06T05:24:04.349Z,1020.56
2018-05-06T05:25:04.333Z,1020.56
2018-05-06T05:26:04.333Z,1020.57
2018-05-06T05:27:04.322Z,1020.55
2018-05-06T05:28:04.292Z,1020.64
2018-05-06T05:29:04.277Z,1020.62
2018-05-06T05:30:04.266Z,1020.61
2018-05-06T05:31:04.252Z,1020.62
2018-05-06T05:32:04.250Z,1020.63
2018-05-06T05:33:04.221Z,1020.61
2018-05-06T05:34:04.221Z,1020.64
2018-05-06T05:35:04.194Z,1020.65
2018-05-06T05:36:04.177Z,1020.61
2018-05-06T05:37:04.181Z,1020.59
2018-05-06T05:38:04.151Z,1020.58
2018-05-06T05:39:04.136Z,1020.59
2018-05-06T05:40:04.117Z,1020.60
2018-05-06T05:41:04.112Z,1020.62
2018-05-06T05:42:04.110Z,1020.56
2018-05-06T05:43:04.080Z,1020.59
2018-05-06T05:44:04.084Z,1020.61
2018-05-06T05:45:04.053Z,1020.57
2018-05-06T05:46:04.038Z,1020.58
2018-05-06T05:47:04.038Z,1020.62
2018-05-06T05:48:04.026Z,1020.68
2018-05-06T05:49:03.997Z,1020.72
2018-05-06T05:50:03.982Z,1020.70
2018-05-06T05:51:03.965Z,1020.68
2018-05-06T05:52:03.956Z,1020.73
2018-05-06T05:53:03.942Z,1020.74
2018-05-06T05:54:03.944Z,1020.69
2018-05-06T05:55:03.912Z,1020.70
2018-05-06T05:56:03.900Z,1020.76
2018-05-06T05:57:03.891Z,1020.75
2018-05-06T05:58:03.887Z,1020.73
2018-05-06T05:59:03.857Z,1020.75
2018-05-06T06:00:03.860Z,1020.72
2018-05-06T06:01:03.834Z,1020.74
2018-05-06T06:02:03.819Z,1020.72
2018-05-06T06:03:03.804Z,1020.70
2018-05-06T06:04:03.810Z,1020.71
2018-05-06T06:05:03.775Z,1020.68
2018-05-06T06:06:03.761Z,1020.68
2018-05-06T06:07:03.752Z,1020.67
2018-05-06T06:08:03.738Z,1020.70
2018-05-06T06:09:03.738Z,1020.68
2018-05-06T06:10:03.711Z,1020.72
2018-05-06T06:11:03.698Z,1020.71
2018-05-06T06:12:03.685Z,1020.74
2018-05-06T06:13:03.675Z,1020.73
2018-05-06T06:14:03.682Z,1020.72
2018-05-06T06:15:03.657Z,1020.76
2018-05-06T06:16:03.629Z,1020.73
2018-05-06T06:17:03.618Z,1020.75
2018-05-06T06:18:03.608Z,1020.76
2018-05-06T06:19:03.590Z,1020.74
2018-05-06T06:20:03.594Z,1020.75
2018-05-06T06:21:03.566Z,1020.77
2018-05-06T06:22:03.585Z,1020.77
2018-05-06T06:23:03.544Z,1020.77
2018-05-06T06:24:03.528Z,1020.77
2018-05-06T06:25:03.527Z,1020.73
2018-05-06T06:26:03.499Z,1020.75
2018-05-06T06:27:03.490Z,1020.75
2018-05-06T06:28:03.489Z,1020.75
2018-05-06T06:29:03.462Z,1020.74
2018-05-06T06:30:03.447Z,1020.77
2018-05-06T06:31:03.434Z,1020.73
2018-05-06T06:32:03.424Z,1020.72
2018-05-06T06:33:03.506Z,1020.75
2018-05-06T06:34:03.396Z,1020.79
2018-05-06T06:35:03.387Z,1020.72
2018-05-06T06:36:03.371Z,1020.75
2018-05-06T06:37:03.358Z,1020.73
2018-05-06T06:38:03.346Z,1020.77
2018-05-06T06:39:03.348Z,1020.74
2018-05-06T06:40:03.320Z,1020.71
2018-05-06T06:41:03.307Z,1020.73
2018-05-06T06:42:03.295Z,1020.73
2018-05-06T06:43:03.282Z,1020.77
2018-05-06T06:44:03.271Z,1020.78
2018-05-06T06:45:03.275Z,1020.79
2018-05-06T06:46:04.303Z,1020.80
2018-05-06T06:47:03.249Z,1020.79
2018-05-06T06:48:03.246Z,1020.76
2018-05-06T06:49:03.208Z,1020.80
2018-05-06T06:50:03.197Z,1020.82
2018-05-06T06:51:03.201Z,1020.85
2018-05-06T06:52:03.177Z,1020.85
2018-05-06T06:53:03.155Z,1020.88
2018-05-06T06:54:03.141Z,1020.86
2018-05-06T06:55:03.148Z,1020.88
2018-05-06T06:56:03.119Z,1020.85
2018-05-06T06:57:03.103Z,1020.82
2018-05-06T06:58:03.094Z,1020.84
2018-05-06T06:59:03.080Z,1020.83
2018-05-06T07:00:03.069Z,1020.83
2018-05-06T07:01:03.075Z,1020.85
2018-05-06T07:02:03.046Z,1020.89
2018-05-06T07:03:03.028Z,1020.85
2018-05-06T07:04:03.019Z,1020.87
2018-05-06T07:05:03.027Z,1020.90
2018-05-06T07:06:02.991Z,1020.90
2018-05-06T07:07:02.980Z,1020.92
2018-05-06T07:08:02.972Z,1020.89
2018-05-06T07:09:02.956Z,1020.92
2018-05-06T07:10:02.960Z,1020.93
2018-05-06T07:11:02.929Z,1020.96
2018-05-06T07:12:02.921Z,1020.91
2018-05-06T07:13:02.913Z,1020.92
2018-05-06T07:14:02.897Z,1020.93
2018-05-06T07:15:02.970Z,1020.90
2018-05-06T07:16:02.873Z,1020.90
2018-05-06T07:17:02.858Z,1020.93
2018-05-06T07:18:02.920Z,1020.95
2018-05-06T07:19:02.836Z,1020.93
2018-05-06T07:20:02.825Z,1021.44
2018-05-06T07:21:02.813Z,1021.88
2018-05-06T07:22:02.815Z,1021.26
2018-05-06T07:23:02.794Z,1021.31
2018-05-06T07:24:02.777Z,1020.99
2018-05-06T07:25:02.767Z,1021.09
2018-05-06T07:26:02.766Z,1020.92
2018-05-06T07:27:02.741Z,1020.90
2018-05-06T07:28:02.728Z,1020.95
2018-05-06T07:29:02.730Z,1020.89
2018-05-06T07:30:02.706Z,1020.93
2018-05-06T07:31:02.711Z,1020.92
2018-05-06T07:32:02.681Z,1020.89
2018-05-06T07:33:02.691Z,1020.88
2018-05-06T07:34:02.658Z,1020.88
2018-05-06T07:35:02.647Z,1020.88
2018-05-06T07:36:02.634Z,1020.89
2018-05-06T07:37:02.635Z,1020.96
2018-05-06T07:38:02.613Z,1020.96
2018-05-06T07:39:02.600Z,1020.90
2018-05-06T07:40:02.597Z,1021.01
2018-05-06T07:41:02.602Z,1020.96
2018-05-06T07:42:02.599Z,1020.94
2018-05-06T07:43:02.552Z,1020.94
2018-05-06T07:44:02.543Z,1020.95
2018-05-06T07:45:02.530Z,1020.95
2018-05-06T07:46:02.519Z,1020.94
2018-05-06T07:47:02.501Z,1020.94
2018-05-06T07:48:02.504Z,1020.88
2018-05-06T07:49:02.566Z,1020.90
2018-05-06T07:50:02.469Z,1020.94
2018-05-06T07:51:02.459Z,1020.95
2018-05-06T07:52:02.447Z,1020.89
2018-05-06T07:53:02.452Z,1020.85
2018-05-06T07:54:02.425Z,1020.92
2018-05-06T07:55:02.412Z,1020.94
2018-05-06T07:56:02.400Z,1020.93
2018-05-06T07:57:02.389Z,1020.92
2018-05-06T07:58:02.380Z,1020.94
2018-05-06T07:59:02.382Z,1020.98
2018-05-06T08:00:02.367Z,1020.94
2018-05-06T08:01:02.344Z,1020.93
2018-05-06T08:02:02.328Z,1020.94
2018-05-06T08:03:02.322Z,1020.90
2018-05-06T08:04:02.309Z,1020.94
2018-05-06T08:05:02.312Z,1020.93
2018-05-06T08:06:02.287Z,1020.97
2018-05-06T08:07:02.276Z,1020.91
2018-05-06T08:08:02.267Z,1020.95
2018-05-06T08:09:02.292Z,1020.97
2018-05-06T08:10:02.252Z,1020.97
2018-05-06T08:11:02.249Z,1020.99
2018-05-06T08:12:02.221Z,1020.91
2018-05-06T08:13:02.206Z,1021.01
2018-05-06T08:14:02.196Z,1020.94
2018-05-06T08:15:02.183Z,1020.94
2018-05-06T08:16:02.172Z,1020.94
2018-05-06T08:17:02.191Z,1020.97
2018-05-06T08:18:02.151Z,1020.88
2018-05-06T08:19:02.139Z,1020.98
2018-05-06T08:20:02.130Z,1020.97
2018-05-06T08:21:02.119Z,1020.96
2018-05-06T08:22:02.126Z,1021.04
2018-05-06T08:23:02.092Z,1020.99
2018-05-06T08:24:02.083Z,1020.94
2018-05-06T08:25:02.074Z,1021.02
2018-05-06T08:26:02.066Z,1020.98
2018-05-06T08:27:02.061Z,1021.00
2018-05-06T08:28:02.041Z,1020.97
2018-05-06T08:29:02.030Z,1020.96
2018-05-06T08:30:02.019Z,1020.94
2018-05-06T08:31:02.051Z,1020.95
2018-05-06T08:32:02.006Z,1020.90
2018-05-06T08:33:02.002Z,1020.97
2018-05-06T08:34:01.976Z,1020.93
2018-05-06T08:35:01.961Z,1020.93
2018-05-06T08:36:01.950Z,1020.91
2018-05-06T08:37:01.942Z,1020.93
2018-05-06T08:38:01.929Z,1020.94
2018-05-06T08:39:01.941Z,1020.96
2018-05-06T08:40:01.909Z,1020.96
2018-05-06T08:41:01.933Z,1020.97
2018-05-06T08:42:01.888Z,1020.97
2018-05-06T08:43:01.877Z,1020.97
2018-05-06T08:44:01.877Z,1020.98
2018-05-06T08:45:01.859Z,1020.95
2018-05-06T08:46:01.842Z,1020.93
2018-05-06T08:47:01.833Z,1021.11
2018-05-06T08:48:01.837Z,1021.02
2018-05-06T08:49:01.849Z,1021.05
2018-05-06T08:50:01.798Z,1021.07
2018-05-06T08:51:01.792Z,1021.08
2018-05-06T08:52:01.784Z,1021.02
2018-05-06T08:53:01.765Z,1021.04
2018-05-06T08:54:01.761Z,1021.07
2018-05-06T08:55:01.767Z,1021.06
2018-05-06T08:56:01.742Z,1021.08
2018-05-06T08:57:01.733Z,1021.12
2018-05-06T08:58:01.716Z,1021.16
2018-05-06T08:59:01.729Z,1021.15
2018-05-06T09:00:01.720Z,1021.13
2018-05-06T09:01:01.715Z,1021.15
2018-05-06T09:02:01.699Z,1021.17
2018-05-06T09:03:01.671Z,1021.13
2018-05-06T09:04:01.693Z,1021.17
2018-05-06T09:05:01.654Z,1021.19
2018-05-06T09:06:01.643Z,1021.23
2018-05-06T09:07:01.651Z,1021.25
2018-05-06T09:08:01.638Z,1021.25
2018-05-06T09:09:01.617Z,1021.25
2018-05-06T09:10:01.636Z,1021.28
2018-05-06T09:11:01.629Z,1021.26
2018-05-06T09:12:01.585Z,1021.26
2018-05-06T09:13:01.580Z,1021.27
2018-05-06T09:14:01.567Z,1021.22
2018-05-06T09:15:01.556Z,1021.23
2018-05-06T09:16:01.566Z,1021.21
2018-05-06T09:17:01.553Z,1021.17
2018-05-06T09:18:01.531Z,1021.15
2018-05-06T09:19:01.522Z,1021.14
2018-05-06T09:20:01.534Z,1020.97
2018-05-06T09:21:01.504Z,1020.30
2018-05-06T09:22:01.494Z,1020.19
2018-05-06T09:23:01.487Z,1020.02
2018-05-06T09:24:01.481Z,1019.49
2018-05-06T09:25:01.485Z,1019.39
2018-05-06T09:26:01.463Z,1019.42
2018-05-06T09:27:01.456Z,1019.21
2018-05-06T09:28:01.456Z,1019.42
2018-05-06T09:29:01.442Z,1019.67
2018-05-06T09:30:01.445Z,1019.71
2018-05-06T09:31:01.423Z,1019.82
2018-05-06T09:32:01.421Z,1019.94
2018-05-06T09:33:01.426Z,1020.00
2018-05-06T09:34:01.406Z,1020.04
2018-05-06T09:35:01.401Z,1019.98
2018-05-06T09:36:01.394Z,1020.10
2018-05-06T09:37:01.392Z,1020.35
2018-05-06T09:38:01.411Z,1020.52
2018-05-06T09:39:01.383Z,1020.59
2018-05-06T09:40:01.378Z,1020.65
2018-05-06T09:41:01.381Z,1020.79
2018-05-06T09:42:01.376Z,1020.80
2018-05-06T09:43:01.375Z,1020.89
2018-05-06T09:44:01.381Z,1020.95
2018-05-06T09:45:01.380Z,1021.00
2018-05-06T09:46:01.363Z,1021.05
2018-05-06T09:47:01.365Z,1021.07
2018-05-06T09:48:01.362Z,1021.08
2018-05-06T09:49:01.358Z,1021.10
2018-05-06T09:50:01.372Z,1021.08
2018-05-06T09:51:01.374Z,1021.15
2018-05-06T09:52:01.356Z,1021.12
2018-05-06T09:53:01.356Z,1021.15
2018-05-06T09:54:01.354Z,1021.22
2018-05-06T09:55:01.359Z,1021.21
2018-05-06T09:56:01.354Z,1021.21
2018-05-06T09:57:01.374Z,1021.19
2018-05-06T09:58:01.355Z,1021.17
2018-05-06T09:59:01.365Z,1021.16
2018-05-06T10:00:01.357Z,1021.17
2018-05-06T10:01:01.371Z,1021.16
2018-05-06T10:02:01.355Z,1021.17
2018-05-06T10:03:01.354Z,1021.13
2018-05-06T10:04:01.358Z,1021.09
2018-05-06T10:05:01.357Z,1021.08
2018-05-06T10:06:01.377Z,1021.10
2018-05-06T10:07:01.377Z,1021.08
2018-05-06T10:08:01.362Z,1021.14
2018-05-06T10:09:01.363Z,1021.08
2018-05-06T10:10:01.363Z,1021.05
2018-05-06T10:11:01.371Z,1021.07
2018-05-06T10:12:01.383Z,1021.06
2018-05-06T10:13:01.371Z,1021.08
2018-05-06T10:14:01.373Z,1021.06
2018-05-06T10:15:01.376Z,1021.08
2018-05-06T10:16:01.378Z,1021.04
2018-05-06T10:17:01.408Z,1021.03
2018-05-06T10:18:01.385Z,1021.00
2018-05-06T10:19:01.386Z,1020.94
2018-05-06T10:20:01.386Z,1020.96
2018-05-06T10:21:01.389Z,1020.93
2018-05-06T10:22:01.395Z,1020.92
2018-05-06T10:23:01.406Z,1020.93
2018-05-06T10:24:01.398Z,1020.91
2018-05-06T10:25:01.412Z,1020.92
2018-05-06T10:26:02.936Z,1020.91
2018-05-06T10:27:01.408Z,1020.87
2018-05-06T10:28:01.445Z,1020.87
2018-05-06T10:29:01.438Z,1020.85
2018-05-06T10:30:01.418Z,1020.82
2018-05-06T10:31:01.421Z,1020.82
2018-05-06T10:32:01.436Z,1020.77
2018-05-06T10:33:01.428Z,1020.76
2018-05-06T10:34:01.433Z,1020.77
2018-05-06T10:36:33.499Z,1020.74
2018-05-06T10:37:33.500Z,1020.71
2018-05-06T10:38:33.520Z,1020.70
2018-05-06T10:39:33.495Z,1020.70
2018-05-06T10:40:33.513Z,1020.71
2018-05-06T10:41:33.506Z,1020.71
2018-05-06T10:42:33.509Z,1020.66
2018-05-06T10:43:33.509Z,1020.60
2018-05-06T10:44:33.599Z,1020.64
2018-05-06T10:45:33.533Z,1020.62
2018-05-06T10:46:33.526Z,1020.61
2018-05-06T10:47:33.526Z,1020.56
2018-05-06T10:48:33.536Z,1020.56
2018-05-06T10:49:33.534Z,1020.59
2018-05-06T10:50:33.553Z,1020.49
2018-05-06T10:51:33.550Z,1020.50
2018-05-06T10:52:33.550Z,1020.48
2018-05-06T10:53:33.555Z,1020.47
2018-05-06T10:54:33.563Z,1020.45
2018-05-06T10:55:33.584Z,1020.43
2018-05-06T10:56:33.591Z,1020.43
2018-05-06T10:57:33.571Z,1020.40
2018-05-06T10:58:33.579Z,1020.40
2018-05-06T10:59:33.585Z,1020.43
2018-05-06T11:00:33.584Z,1020.40
2018-05-06T11:01:33.608Z,1020.44
2018-05-06T11:02:33.610Z,1020.43
2018-05-06T11:03:33.601Z,1020.42
2018-05-06T11:04:33.604Z,1020.42
2018-05-06T11:05:33.611Z,1020.44
2018-05-06T11:06:33.615Z,1020.39
2018-05-06T11:07:33.640Z,1020.38
2018-05-06T11:08:33.627Z,1020.34
2018-05-06T11:09:33.624Z,1020.36
2018-05-06T11:10:33.640Z,1020.39
2018-05-06T11:11:33.659Z,1020.37
2018-05-06T11:12:33.645Z,1020.41
2018-05-06T11:13:33.651Z,1020.35
2018-05-06T11:14:33.651Z,1020.34
2018-05-06T11:15:33.663Z,1020.33
2018-05-06T11:16:33.684Z,1020.29
2018-05-06T11:17:33.672Z,1020.27
2018-05-06T11:18:33.677Z,1020.23
2018-05-06T11:19:33.685Z,1020.23
2018-05-06T11:20:33.702Z,1020.19
2018-05-06T11:21:33.712Z,1020.22
2018-05-06T11:22:33.697Z,1020.24
2018-05-06T11:23:33.705Z,1020.24
2018-05-06T11:24:33.712Z,1020.25
2018-05-06T11:25:33.712Z,1020.22
2018-05-06T11:26:33.734Z,1020.21
2018-05-06T11:27:33.742Z,1020.25
2018-05-06T11:28:33.731Z,1020.22
2018-05-06T11:29:33.735Z,1020.22
2018-05-06T11:30:33.743Z,1020.22
2018-05-06T11:31:33.751Z,1020.17
2018-05-06T11:32:33.767Z,1020.23
2018-05-06T11:33:33.756Z,1020.19
2018-05-06T11:34:33.765Z,1020.20
2018-05-06T11:35:33.787Z,1020.15
2018-05-06T11:36:33.774Z,1020.13
2018-05-06T11:37:33.780Z,1020.14
2018-05-06T11:38:33.785Z,1020.12
2018-05-06T11:39:33.787Z,1020.13
2018-05-06T11:40:33.814Z,1020.13
2018-05-06T11:41:33.802Z,1020.12
2018-05-06T11:42:33.811Z,1020.07
2018-05-06T11:43:33.813Z,1020.06
2018-05-06T11:44:33.820Z,1020.08
2018-05-06T11:45:33.840Z,1020.07
2018-05-06T11:46:33.846Z,1020.04
2018-05-06T11:47:33.838Z,1020.02
2018-05-06T11:48:33.837Z,1019.99
2018-05-06T11:49:34.636Z,1020.02
2018-05-06T11:50:33.853Z,1019.96
2018-05-06T11:51:33.873Z,1020.00
2018-05-06T11:52:33.866Z,1020.02
2018-05-06T11:53:33.885Z,1019.98
2018-05-06T11:54:33.876Z,1019.99
2018-05-06T11:55:33.881Z,1019.96
2018-05-06T11:56:33.889Z,1019.95
2018-05-06T11:57:33.891Z,1019.96
2018-05-06T11:58:33.914Z,1019.96
2018-05-06T11:59:33.904Z,1020.01
2018-05-06T12:00:33.913Z,1020.00
2018-05-06T12:01:33.914Z,1020.01
2018-05-06T12:02:33.918Z,1020.03
2018-05-06T12:03:33.948Z,1019.95
2018-05-06T12:04:33.934Z,1020.00
2018-05-06T12:05:33.933Z,1019.99
2018-05-06T12:06:33.946Z,1019.98